sensor_id;sensor_type;location;lat;lon;timestamp;P1;durP1;ratioP1;P2;durP2;ratioP2
76320;SDS011;65132;52.088;5.402;2023-07-13T00:01:15;3.95;;;1.45;;
76320;SDS011;65132;52.088;5.402;2023-07-13T00:03:45;4.38;;;1.00;;
76320;SDS011;65132;52.088;5.402;2023-07-13T00:06:16;6.15;;;1.25;;
76320;SDS011;65132;52.088;5.402;2023-07-13T00:08:42;7.65;;;1.30;;
76320;SDS011;65132;52.088;5.402;2023-07-13T00:11:09;5.85;;;1.35;;
76320;SDS011;65132;52.088;5.402;2023-07-13T00:13:35;6.50;;;1.15;;
76320;SDS011;65132;52.088;5.402;2023-07-13T00:16:03;4.00;;;0.93;;
76320;SDS011;65132;52.088;5.402;2023-07-13T00:18:38;6.03;;;1.20;;
76320;SDS011;65132;52.088;5.402;2023-07-13T00:21:08;5.03;;;1.33;;
76320;SDS011;65132;52.088;5.402;2023-07-13T00:23:41;4.35;;;0.70;;
76320;SDS011;65132;52.088;5.402;2023-07-13T00:26:09;6.50;;;0.90;;
76320;SDS011;65132;52.088;5.402;2023-07-13T00:28:39;7.75;;;0.95;;
76320;SDS011;65132;52.088;5.402;2023-07-13T00:31:11;5.63;;;1.27;;
76320;SDS011;65132;52.088;5.402;2023-07-13T00:33:38;7.75;;;1.23;;
76320;SDS011;65132;52.088;5.402;2023-07-13T00:36:10;4.60;;;1.00;;
76320;SDS011;65132;52.088;5.402;2023-07-13T00:38:38;7.68;;;1.20;;
76320;SDS011;65132;52.088;5.402;2023-07-13T00:41:04;5.03;;;1.45;;
76320;SDS011;65132;52.088;5.402;2023-07-13T00:43:30;6.47;;;1.40;;
76320;SDS011;65132;52.088;5.402;2023-07-13T00:46:14;4.30;;;1.10;;
76320;SDS011;65132;52.088;5.402;2023-07-13T00:48:49;7.18;;;1.40;;
76320;SDS011;65132;52.088;5.402;2023-07-13T00:51:27;4.90;;;1.10;;
76320;SDS011;65132;52.088;5.402;2023-07-13T00:54:02;5.25;;;1.70;;
76320;SDS011;65132;52.088;5.402;2023-07-13T00:59:22;4.57;;;1.25;;
76320;SDS011;65132;52.088;5.402;2023-07-13T01:01:51;3.97;;;1.23;;
76320;SDS011;65132;52.088;5.402;2023-07-13T01:04:20;3.78;;;0.60;;
76320;SDS011;65132;52.088;5.402;2023-07-13T01:06:46;4.10;;;1.10;;
76320;SDS011;65132;52.088;5.402;2023-07-13T01:09:15;5.85;;;1.65;;
76320;SDS011;65132;52.088;5.402;2023-07-13T01:11:45;5.82;;;1.45;;
76320;SDS011;65132;52.088;5.402;2023-07-13T01:14:15;5.95;;;1.52;;
76320;SDS011;65132;52.088;5.402;2023-07-13T01:16:42;3.83;;;1.08;;
76320;SDS011;65132;52.088;5.402;2023-07-13T01:21:49;8.35;;;1.08;;
76320;SDS011;65132;52.088;5.402;2023-07-13T01:24:21;10.90;;;1.45;;
76320;SDS011;65132;52.088;5.402;2023-07-13T01:26:48;5.65;;;1.35;;
76320;SDS011;65132;52.088;5.402;2023-07-13T01:29:31;4.75;;;1.30;;
76320;SDS011;65132;52.088;5.402;2023-07-13T01:31:58;5.03;;;1.73;;
76320;SDS011;65132;52.088;5.402;2023-07-13T01:34:28;4.25;;;1.42;;
76320;SDS011;65132;52.088;5.402;2023-07-13T01:36:57;6.75;;;1.55;;
76320;SDS011;65132;52.088;5.402;2023-07-13T01:39:35;4.65;;;1.48;;
76320;SDS011;65132;52.088;5.402;2023-07-13T01:42:08;7.80;;;1.40;;
76320;SDS011;65132;52.088;5.402;2023-07-13T01:44:34;8.50;;;1.55;;
76320;SDS011;65132;52.088;5.402;2023-07-13T01:47:01;6.88;;;0.93;;
76320;SDS011;65132;52.088;5.402;2023-07-13T01:49:30;4.88;;;1.13;;
76320;SDS011;65132;52.088;5.402;2023-07-13T01:51:59;7.05;;;1.02;;
76320;SDS011;65132;52.088;5.402;2023-07-13T01:54:25;3.92;;;1.00;;
76320;SDS011;65132;52.088;5.402;2023-07-13T01:57:00;5.63;;;0.90;;
76320;SDS011;65132;52.088;5.402;2023-07-13T01:59:27;4.72;;;1.40;;
76320;SDS011;65132;52.088;5.402;2023-07-13T02:02:10;5.25;;;1.20;;
76320;SDS011;65132;52.088;5.402;2023-07-13T02:04:41;6.88;;;1.48;;
76320;SDS011;65132;52.088;5.402;2023-07-13T02:07:18;7.47;;;1.45;;
76320;SDS011;65132;52.088;5.402;2023-07-13T02:09:44;4.35;;;1.40;;
76320;SDS011;65132;52.088;5.402;2023-07-13T02:12:14;3.72;;;1.08;;
76320;SDS011;65132;52.088;5.402;2023-07-13T02:14:41;8.90;;;1.38;;
76320;SDS011;65132;52.088;5.402;2023-07-13T02:17:12;8.95;;;1.60;;
76320;SDS011;65132;52.088;5.402;2023-07-13T02:19:40;5.80;;;1.88;;
76320;SDS011;65132;52.088;5.402;2023-07-13T02:22:07;6.07;;;1.30;;
76320;SDS011;65132;52.088;5.402;2023-07-13T02:24:36;6.00;;;1.23;;
76320;SDS011;65132;52.088;5.402;2023-07-13T02:27:03;4.15;;;1.17;;
76320;SDS011;65132;52.088;5.402;2023-07-13T02:29:34;5.35;;;1.05;;
76320;SDS011;65132;52.088;5.402;2023-07-13T02:32:07;5.82;;;1.40;;
76320;SDS011;65132;52.088;5.402;2023-07-13T02:34:35;4.75;;;1.30;;
76320;SDS011;65132;52.088;5.402;2023-07-13T02:37:04;5.10;;;1.52;;
76320;SDS011;65132;52.088;5.402;2023-07-13T02:39:31;7.43;;;1.30;;
76320;SDS011;65132;52.088;5.402;2023-07-13T02:41:59;5.20;;;1.30;;
76320;SDS011;65132;52.088;5.402;2023-07-13T02:44:33;6.40;;;1.25;;
76320;SDS011;65132;52.088;5.402;2023-07-13T02:47:07;5.78;;;1.48;;
76320;SDS011;65132;52.088;5.402;2023-07-13T02:49:35;6.00;;;2.38;;
76320;SDS011;65132;52.088;5.402;2023-07-13T02:52:04;4.63;;;1.20;;
76320;SDS011;65132;52.088;5.402;2023-07-13T02:54:32;5.00;;;1.42;;
76320;SDS011;65132;52.088;5.402;2023-07-13T02:57:01;4.22;;;1.20;;
76320;SDS011;65132;52.088;5.402;2023-07-13T02:59:35;4.32;;;1.80;;
76320;SDS011;65132;52.088;5.402;2023-07-13T03:02:05;5.95;;;1.48;;
76320;SDS011;65132;52.088;5.402;2023-07-13T03:04:31;9.45;;;2.08;;
76320;SDS011;65132;52.088;5.402;2023-07-13T03:06:57;5.88;;;1.70;;
76320;SDS011;65132;52.088;5.402;2023-07-13T03:09:25;6.57;;;1.55;;
76320;SDS011;65132;52.088;5.402;2023-07-13T03:11:57;6.28;;;1.52;;
76320;SDS011;65132;52.088;5.402;2023-07-13T03:14:23;7.47;;;2.10;;
76320;SDS011;65132;52.088;5.402;2023-07-13T03:16:56;7.60;;;1.95;;
76320;SDS011;65132;52.088;5.402;2023-07-13T03:19:26;6.30;;;1.52;;
76320;SDS011;65132;52.088;5.402;2023-07-13T03:21:53;7.05;;;2.10;;
76320;SDS011;65132;52.088;5.402;2023-07-13T03:24:27;8.63;;;1.80;;
76320;SDS011;65132;52.088;5.402;2023-07-13T03:29:33;6.35;;;1.63;;
76320;SDS011;65132;52.088;5.402;2023-07-13T03:31:59;7.18;;;2.28;;
76320;SDS011;65132;52.088;5.402;2023-07-13T03:34:25;6.70;;;1.85;;
76320;SDS011;65132;52.088;5.402;2023-07-13T03:36:53;6.60;;;1.95;;
76320;SDS011;65132;52.088;5.402;2023-07-13T03:39:24;6.38;;;2.20;;
76320;SDS011;65132;52.088;5.402;2023-07-13T03:41:52;7.95;;;2.30;;
76320;SDS011;65132;52.088;5.402;2023-07-13T03:44:39;9.07;;;2.35;;
76320;SDS011;65132;52.088;5.402;2023-07-13T03:47:08;7.63;;;2.20;;
76320;SDS011;65132;52.088;5.402;2023-07-13T03:49:34;9.90;;;2.17;;
76320;SDS011;65132;52.088;5.402;2023-07-13T03:52:16;8.23;;;1.88;;
76320;SDS011;65132;52.088;5.402;2023-07-13T03:54:43;9.13;;;2.33;;
76320;SDS011;65132;52.088;5.402;2023-07-13T03:57:26;5.70;;;1.92;;
76320;SDS011;65132;52.088;5.402;2023-07-13T03:59:59;8.30;;;2.55;;
76320;SDS011;65132;52.088;5.402;2023-07-13T04:02:28;7.30;;;2.38;;
76320;SDS011;65132;52.088;5.402;2023-07-13T04:04:56;9.73;;;2.47;;
76320;SDS011;65132;52.088;5.402;2023-07-13T04:07:25;12.07;;;2.17;;
76320;SDS011;65132;52.088;5.402;2023-07-13T04:09:56;8.63;;;2.03;;
76320;SDS011;65132;52.088;5.402;2023-07-13T04:12:26;10.43;;;2.17;;
76320;SDS011;65132;52.088;5.402;2023-07-13T04:14:56;6.97;;;1.95;;
76320;SDS011;65132;52.088;5.402;2023-07-13T04:17:25;12.55;;;2.95;;
76320;SDS011;65132;52.088;5.402;2023-07-13T04:19:55;10.48;;;2.22;;
76320;SDS011;65132;52.088;5.402;2023-07-13T04:22:29;10.30;;;2.63;;
76320;SDS011;65132;52.088;5.402;2023-07-13T04:24:56;12.00;;;2.83;;
76320;SDS011;65132;52.088;5.402;2023-07-13T04:27:27;10.73;;;3.15;;
76320;SDS011;65132;52.088;5.402;2023-07-13T04:29:56;9.45;;;2.67;;
76320;SDS011;65132;52.088;5.402;2023-07-13T04:32:25;10.35;;;2.80;;
76320;SDS011;65132;52.088;5.402;2023-07-13T04:34:56;8.93;;;2.45;;
76320;SDS011;65132;52.088;5.402;2023-07-13T04:37:22;7.15;;;2.42;;
76320;SDS011;65132;52.088;5.402;2023-07-13T04:39:52;13.85;;;3.45;;
76320;SDS011;65132;52.088;5.402;2023-07-13T04:42:21;10.00;;;2.70;;
76320;SDS011;65132;52.088;5.402;2023-07-13T04:44:51;8.82;;;2.42;;
76320;SDS011;65132;52.088;5.402;2023-07-13T04:47:21;13.80;;;2.78;;
76320;SDS011;65132;52.088;5.402;2023-07-13T04:49:47;8.57;;;2.95;;
76320;SDS011;65132;52.088;5.402;2023-07-13T04:52:13;7.90;;;2.28;;
76320;SDS011;65132;52.088;5.402;2023-07-13T04:54:43;8.60;;;2.92;;
76320;SDS011;65132;52.088;5.402;2023-07-13T04:57:11;16.27;;;2.80;;
76320;SDS011;65132;52.088;5.402;2023-07-13T04:59:38;9.82;;;2.75;;
76320;SDS011;65132;52.088;5.402;2023-07-13T05:02:17;10.77;;;3.05;;
76320;SDS011;65132;52.088;5.402;2023-07-13T05:04:49;11.15;;;3.50;;
76320;SDS011;65132;52.088;5.402;2023-07-13T05:07:24;12.32;;;2.38;;
76320;SDS011;65132;52.088;5.402;2023-07-13T05:09:51;11.88;;;3.08;;
76320;SDS011;65132;52.088;5.402;2023-07-13T05:12:23;10.85;;;3.53;;
76320;SDS011;65132;52.088;5.402;2023-07-13T05:15:10;7.95;;;3.28;;
76320;SDS011;65132;52.088;5.402;2023-07-13T05:17:37;12.13;;;3.45;;
76320;SDS011;65132;52.088;5.402;2023-07-13T05:20:03;10.60;;;3.25;;
76320;SDS011;65132;52.088;5.402;2023-07-13T05:22:31;14.52;;;3.65;;
76320;SDS011;65132;52.088;5.402;2023-07-13T05:25:04;10.90;;;3.75;;
76320;SDS011;65132;52.088;5.402;2023-07-13T05:27:36;10.40;;;3.70;;
76320;SDS011;65132;52.088;5.402;2023-07-13T05:30:03;15.07;;;3.55;;
76320;SDS011;65132;52.088;5.402;2023-07-13T05:32:33;10.38;;;3.88;;
76320;SDS011;65132;52.088;5.402;2023-07-13T05:35:05;10.07;;;3.72;;
76320;SDS011;65132;52.088;5.402;2023-07-13T05:37:32;11.70;;;4.53;;
76320;SDS011;65132;52.088;5.402;2023-07-13T05:40:13;14.93;;;4.72;;
76320;SDS011;65132;52.088;5.402;2023-07-13T05:42:41;15.02;;;5.40;;
76320;SDS011;65132;52.088;5.402;2023-07-13T05:45:10;17.10;;;6.25;;
76320;SDS011;65132;52.088;5.402;2023-07-13T05:47:39;17.38;;;6.32;;
76320;SDS011;65132;52.088;5.402;2023-07-13T05:50:05;14.68;;;5.25;;
76320;SDS011;65132;52.088;5.402;2023-07-13T05:52:34;13.77;;;4.93;;
76320;SDS011;65132;52.088;5.402;2023-07-13T05:55:08;17.02;;;5.43;;
76320;SDS011;65132;52.088;5.402;2023-07-13T05:57:35;17.52;;;6.35;;
76320;SDS011;65132;52.088;5.402;2023-07-13T06:00:04;17.25;;;6.53;;
76320;SDS011;65132;52.088;5.402;2023-07-13T06:02:33;14.65;;;5.32;;
76320;SDS011;65132;52.088;5.402;2023-07-13T06:04:59;21.17;;;5.60;;
76320;SDS011;65132;52.088;5.402;2023-07-13T06:07:25;18.48;;;6.10;;
76320;SDS011;65132;52.088;5.402;2023-07-13T06:09:54;14.57;;;5.55;;
76320;SDS011;65132;52.088;5.402;2023-07-13T06:12:23;14.98;;;5.72;;
76320;SDS011;65132;52.088;5.402;2023-07-13T06:14:49;17.23;;;6.30;;
76320;SDS011;65132;52.088;5.402;2023-07-13T06:17:17;17.08;;;6.45;;
76320;SDS011;65132;52.088;5.402;2023-07-13T06:19:46;14.95;;;7.45;;
76320;SDS011;65132;52.088;5.402;2023-07-13T06:22:20;14.75;;;6.57;;
76320;SDS011;65132;52.088;5.402;2023-07-13T06:24:47;21.08;;;6.78;;
76320;SDS011;65132;52.088;5.402;2023-07-13T06:27:16;13.77;;;7.05;;
76320;SDS011;65132;52.088;5.402;2023-07-13T06:29:43;18.63;;;6.47;;
76320;SDS011;65132;52.088;5.402;2023-07-13T06:32:13;18.10;;;6.88;;
76320;SDS011;65132;52.088;5.402;2023-07-13T06:34:44;17.40;;;7.28;;
76320;SDS011;65132;52.088;5.402;2023-07-13T06:37:13;23.15;;;6.68;;
76320;SDS011;65132;52.088;5.402;2023-07-13T06:39:39;16.40;;;7.03;;
76320;SDS011;65132;52.088;5.402;2023-07-13T06:42:05;17.73;;;7.18;;
76320;SDS011;65132;52.088;5.402;2023-07-13T06:44:32;16.88;;;7.40;;
76320;SDS011;65132;52.088;5.402;2023-07-13T06:47:01;23.38;;;7.85;;
76320;SDS011;65132;52.088;5.402;2023-07-13T06:49:41;17.33;;;7.28;;
76320;SDS011;65132;52.088;5.402;2023-07-13T06:52:07;15.63;;;7.57;;
76320;SDS011;65132;52.088;5.402;2023-07-13T06:54:36;14.73;;;7.28;;
76320;SDS011;65132;52.088;5.402;2023-07-13T06:57:03;13.80;;;7.00;;
76320;SDS011;65132;52.088;5.402;2023-07-13T06:59:29;18.17;;;8.93;;
76320;SDS011;65132;52.088;5.402;2023-07-13T07:01:57;19.65;;;9.80;;
76320;SDS011;65132;52.088;5.402;2023-07-13T07:04:23;19.08;;;8.88;;
76320;SDS011;65132;52.088;5.402;2023-07-13T07:06:49;24.98;;;9.48;;
76320;SDS011;65132;52.088;5.402;2023-07-13T07:09:18;17.92;;;8.98;;
76320;SDS011;65132;52.088;5.402;2023-07-13T07:11:47;15.05;;;7.60;;
76320;SDS011;65132;52.088;5.402;2023-07-13T07:14:27;17.45;;;7.80;;
76320;SDS011;65132;52.088;5.402;2023-07-13T07:16:54;15.68;;;7.53;;
76320;SDS011;65132;52.088;5.402;2023-07-13T07:19:23;15.40;;;7.78;;
76320;SDS011;65132;52.088;5.402;2023-07-13T07:21:50;21.83;;;7.70;;
76320;SDS011;65132;52.088;5.402;2023-07-13T07:24:16;19.52;;;8.00;;
76320;SDS011;65132;52.088;5.402;2023-07-13T07:26:43;14.88;;;7.65;;
76320;SDS011;65132;52.088;5.402;2023-07-13T07:29:13;19.65;;;8.25;;
76320;SDS011;65132;52.088;5.402;2023-07-13T07:31:42;22.90;;;7.47;;
76320;SDS011;65132;52.088;5.402;2023-07-13T07:34:11;17.58;;;7.75;;
76320;SDS011;65132;52.088;5.402;2023-07-13T07:36:50;22.02;;;8.13;;
76320;SDS011;65132;52.088;5.402;2023-07-13T07:39:20;18.80;;;7.28;;
76320;SDS011;65132;52.088;5.402;2023-07-13T07:41:46;16.75;;;7.50;;
76320;SDS011;65132;52.088;5.402;2023-07-13T07:44:16;16.67;;;7.00;;
76320;SDS011;65132;52.088;5.402;2023-07-13T07:46:45;17.73;;;8.63;;
76320;SDS011;65132;52.088;5.402;2023-07-13T07:49:13;17.80;;;7.07;;
76320;SDS011;65132;52.088;5.402;2023-07-13T07:51:42;14.20;;;6.72;;
76320;SDS011;65132;52.088;5.402;2023-07-13T07:54:17;15.95;;;8.25;;
76320;SDS011;65132;52.088;5.402;2023-07-13T07:57:04;16.63;;;7.00;;
76320;SDS011;65132;52.088;5.402;2023-07-13T07:59:36;11.77;;;6.75;;
76320;SDS011;65132;52.088;5.402;2023-07-13T08:02:09;11.40;;;6.63;;
76320;SDS011;65132;52.088;5.402;2023-07-13T08:04:56;16.98;;;7.32;;
76320;SDS011;65132;52.088;5.402;2023-07-13T08:07:27;17.77;;;7.45;;
76320;SDS011;65132;52.088;5.402;2023-07-13T08:09:53;13.82;;;7.35;;
76320;SDS011;65132;52.088;5.402;2023-07-13T08:12:20;13.90;;;6.68;;
76320;SDS011;65132;52.088;5.402;2023-07-13T08:14:50;12.88;;;6.13;;
76320;SDS011;65132;52.088;5.402;2023-07-13T08:17:24;11.75;;;5.90;;
76320;SDS011;65132;52.088;5.402;2023-07-13T08:20:00;13.02;;;5.70;;
76320;SDS011;65132;52.088;5.402;2023-07-13T08:22:26;11.07;;;5.03;;
76320;SDS011;65132;52.088;5.402;2023-07-13T08:24:56;12.93;;;6.10;;
76320;SDS011;65132;52.088;5.402;2023-07-13T08:27:32;9.93;;;5.03;;
76320;SDS011;65132;52.088;5.402;2023-07-13T08:29:59;11.90;;;4.85;;
76320;SDS011;65132;52.088;5.402;2023-07-13T08:32:25;16.00;;;4.78;;
76320;SDS011;65132;52.088;5.402;2023-07-13T08:34:54;11.57;;;5.22;;
76320;SDS011;65132;52.088;5.402;2023-07-13T08:37:24;9.23;;;3.97;;
76320;SDS011;65132;52.088;5.402;2023-07-13T08:39:53;6.55;;;3.28;;
76320;SDS011;65132;52.088;5.402;2023-07-13T08:42:27;8.35;;;3.47;;
76320;SDS011;65132;52.088;5.402;2023-07-13T08:47:57;6.40;;;2.00;;
76320;SDS011;65132;52.088;5.402;2023-07-13T08:53:17;4.05;;;1.77;;
76320;SDS011;65132;52.088;5.402;2023-07-13T08:55:54;5.32;;;2.38;;
76320;SDS011;65132;52.088;5.402;2023-07-13T08:58:28;3.65;;;2.50;;
76320;SDS011;65132;52.088;5.402;2023-07-13T09:03:22;5.50;;;2.33;;
76320;SDS011;65132;52.088;5.402;2023-07-13T09:05:56;6.30;;;3.25;;
76320;SDS011;65132;52.088;5.402;2023-07-13T09:10:53;4.72;;;2.33;;
76320;SDS011;65132;52.088;5.402;2023-07-13T09:16:09;5.22;;;3.03;;
76320;SDS011;65132;52.088;5.402;2023-07-13T09:18:40;6.03;;;2.42;;
76320;SDS011;65132;52.088;5.402;2023-07-13T09:21:11;4.30;;;2.03;;
76320;SDS011;65132;52.088;5.402;2023-07-13T09:23:42;5.28;;;2.70;;
76320;SDS011;65132;52.088;5.402;2023-07-13T09:26:16;6.28;;;2.40;;
76320;SDS011;65132;52.088;5.402;2023-07-13T09:28:45;6.43;;;1.80;;
76320;SDS011;65132;52.088;5.402;2023-07-13T09:33:45;8.82;;;2.63;;
76320;SDS011;65132;52.088;5.402;2023-07-13T09:36:23;7.07;;;2.45;;
76320;SDS011;65132;52.088;5.402;2023-07-13T09:39:08;5.43;;;2.50;;
76320;SDS011;65132;52.088;5.402;2023-07-13T09:41:51;5.60;;;2.00;;
76320;SDS011;65132;52.088;5.402;2023-07-13T09:44:31;6.53;;;2.42;;
76320;SDS011;65132;52.088;5.402;2023-07-13T09:46:59;3.65;;;1.75;;
76320;SDS011;65132;52.088;5.402;2023-07-13T09:49:35;4.78;;;2.10;;
76320;SDS011;65132;52.088;5.402;2023-07-13T09:52:06;4.65;;;1.73;;
76320;SDS011;65132;52.088;5.402;2023-07-13T09:54:38;6.55;;;2.35;;
76320;SDS011;65132;52.088;5.402;2023-07-13T09:57:18;4.50;;;2.05;;
76320;SDS011;65132;52.088;5.402;2023-07-13T09:59:54;6.97;;;2.63;;
76320;SDS011;65132;52.088;5.402;2023-07-13T10:05:18;6.88;;;1.98;;
76320;SDS011;65132;52.088;5.402;2023-07-13T10:07:47;4.13;;;2.30;;
76320;SDS011;65132;52.088;5.402;2023-07-13T10:10:17;5.72;;;1.92;;
76320;SDS011;65132;52.088;5.402;2023-07-13T10:12:44;6.45;;;1.92;;
76320;SDS011;65132;52.088;5.402;2023-07-13T10:15:23;6.25;;;2.35;;
76320;SDS011;65132;52.088;5.402;2023-07-13T10:17:54;4.35;;;2.30;;
76320;SDS011;65132;52.088;5.402;2023-07-13T10:20:22;4.68;;;1.90;;
76320;SDS011;65132;52.088;5.402;2023-07-13T10:23:07;5.15;;;2.10;;
76320;SDS011;65132;52.088;5.402;2023-07-13T10:25:44;3.15;;;1.67;;
76320;SDS011;65132;52.088;5.402;2023-07-13T10:30:45;5.75;;;2.53;;
76320;SDS011;65132;52.088;5.402;2023-07-13T10:33:16;5.78;;;1.98;;
76320;SDS011;65132;52.088;5.402;2023-07-13T10:35:44;4.78;;;2.03;;
76320;SDS011;65132;52.088;5.402;2023-07-13T10:38:11;4.53;;;1.92;;
76320;SDS011;65132;52.088;5.402;2023-07-13T10:40:51;5.97;;;2.00;;
76320;SDS011;65132;52.088;5.402;2023-07-13T10:43:21;4.55;;;2.17;;
76320;SDS011;65132;52.088;5.402;2023-07-13T10:45:53;5.15;;;1.90;;
76320;SDS011;65132;52.088;5.402;2023-07-13T10:48:20;3.45;;;1.33;;
76320;SDS011;65132;52.088;5.402;2023-07-13T10:50:52;4.43;;;1.98;;
76320;SDS011;65132;52.088;5.402;2023-07-13T10:53:29;7.18;;;1.50;;
76320;SDS011;65132;52.088;5.402;2023-07-13T10:56:05;5.00;;;1.55;;
76320;SDS011;65132;52.088;5.402;2023-07-13T10:58:39;4.05;;;1.48;;
76320;SDS011;65132;52.088;5.402;2023-07-13T11:03:32;2.38;;;1.55;;
76320;SDS011;65132;52.088;5.402;2023-07-13T11:06:15;3.03;;;1.55;;
76320;SDS011;65132;52.088;5.402;2023-07-13T11:18:52;3.75;;;2.28;;
76320;SDS011;65132;52.088;5.402;2023-07-13T11:21:22;4.30;;;1.30;;
76320;SDS011;65132;52.088;5.402;2023-07-13T11:26:40;4.57;;;2.30;;
76320;SDS011;65132;52.088;5.402;2023-07-13T11:31:55;4.47;;;2.65;;
76320;SDS011;65132;52.088;5.402;2023-07-13T11:34:24;4.68;;;2.13;;
76320;SDS011;65132;52.088;5.402;2023-07-13T11:36:54;5.10;;;2.15;;
76320;SDS011;65132;52.088;5.402;2023-07-13T11:41:55;4.05;;;2.00;;
76320;SDS011;65132;52.088;5.402;2023-07-13T11:44:23;6.05;;;1.83;;
76320;SDS011;65132;52.088;5.402;2023-07-13T11:46:58;5.63;;;2.30;;
76320;SDS011;65132;52.088;5.402;2023-07-13T11:49:30;7.85;;;2.90;;
76320;SDS011;65132;52.088;5.402;2023-07-13T11:51:58;6.78;;;3.05;;
76320;SDS011;65132;52.088;5.402;2023-07-13T11:54:29;5.63;;;3.35;;
76320;SDS011;65132;52.088;5.402;2023-07-13T11:59:40;4.07;;;2.67;;
76320;SDS011;65132;52.088;5.402;2023-07-13T12:02:50;5.20;;;2.67;;
76320;SDS011;65132;52.088;5.402;2023-07-13T12:04:57;4.32;;;2.85;;
76320;SDS011;65132;52.088;5.402;2023-07-13T12:07:30;6.22;;;2.83;;
76320;SDS011;65132;52.088;5.402;2023-07-13T12:12:36;5.15;;;2.78;;
76320;SDS011;65132;52.088;5.402;2023-07-13T12:15:11;6.68;;;3.35;;
76320;SDS011;65132;52.088;5.402;2023-07-13T12:17:38;6.35;;;3.05;;
76320;SDS011;65132;52.088;5.402;2023-07-13T12:20:21;6.10;;;2.67;;
76320;SDS011;65132;52.088;5.402;2023-07-13T12:22:51;5.88;;;3.03;;
76320;SDS011;65132;52.088;5.402;2023-07-13T12:25:18;6.88;;;2.60;;
76320;SDS011;65132;52.088;5.402;2023-07-13T12:27:52;6.68;;;2.47;;
76320;SDS011;65132;52.088;5.402;2023-07-13T12:30:28;3.90;;;2.38;;
76320;SDS011;65132;52.088;5.402;2023-07-13T12:35:30;4.85;;;2.47;;
76320;SDS011;65132;52.088;5.402;2023-07-13T12:37:57;4.75;;;2.45;;
76320;SDS011;65132;52.088;5.402;2023-07-13T12:40:26;5.25;;;2.33;;
76320;SDS011;65132;52.088;5.402;2023-07-13T12:42:55;6.18;;;2.42;;
76320;SDS011;65132;52.088;5.402;2023-07-13T12:45:24;6.70;;;2.58;;
76320;SDS011;65132;52.088;5.402;2023-07-13T12:47:55;7.57;;;2.63;;
76320;SDS011;65132;52.088;5.402;2023-07-13T12:53:12;7.40;;;2.42;;
76320;SDS011;65132;52.088;5.402;2023-07-13T12:55:50;6.85;;;2.47;;
76320;SDS011;65132;52.088;5.402;2023-07-13T12:58:37;7.25;;;2.30;;
76320;SDS011;65132;52.088;5.402;2023-07-13T13:01:04;6.47;;;2.83;;
76320;SDS011;65132;52.088;5.402;2023-07-13T13:03:37;4.68;;;1.42;;
76320;SDS011;65132;52.088;5.402;2023-07-13T13:08:36;3.30;;;1.90;;
76320;SDS011;65132;52.088;5.402;2023-07-13T13:11:08;3.53;;;1.90;;
76320;SDS011;65132;52.088;5.402;2023-07-13T13:13:35;2.97;;;1.60;;
76320;SDS011;65132;52.088;5.402;2023-07-13T13:16:10;3.88;;;2.10;;
76320;SDS011;65132;52.088;5.402;2023-07-13T13:18:40;3.63;;;1.85;;
76320;SDS011;65132;52.088;5.402;2023-07-13T13:21:13;3.35;;;1.77;;
76320;SDS011;65132;52.088;5.402;2023-07-13T13:23:39;3.95;;;1.65;;
76320;SDS011;65132;52.088;5.402;2023-07-13T13:26:13;3.85;;;1.73;;
76320;SDS011;65132;52.088;5.402;2023-07-13T13:28:50;3.55;;;1.80;;
76320;SDS011;65132;52.088;5.402;2023-07-13T13:31:18;3.60;;;1.77;;
76320;SDS011;65132;52.088;5.402;2023-07-13T13:33:45;3.25;;;1.75;;
76320;SDS011;65132;52.088;5.402;2023-07-13T13:36:13;4.88;;;2.13;;
76320;SDS011;65132;52.088;5.402;2023-07-13T13:38:44;5.55;;;2.20;;
76320;SDS011;65132;52.088;5.402;2023-07-13T13:41:12;3.35;;;1.55;;
76320;SDS011;65132;52.088;5.402;2023-07-13T13:43:41;4.22;;;2.05;;
76320;SDS011;65132;52.088;5.402;2023-07-13T13:48:38;3.42;;;1.90;;
76320;SDS011;65132;52.088;5.402;2023-07-13T13:51:21;2.40;;;1.60;;
76320;SDS011;65132;52.088;5.402;2023-07-13T13:53:52;4.35;;;1.95;;
76320;SDS011;65132;52.088;5.402;2023-07-13T13:56:19;4.32;;;2.03;;
76320;SDS011;65132;52.088;5.402;2023-07-13T13:58:47;3.03;;;1.67;;
76320;SDS011;65132;52.088;5.402;2023-07-13T14:01:20;4.68;;;1.90;;
76320;SDS011;65132;52.088;5.402;2023-07-13T14:03:46;5.15;;;2.35;;
76320;SDS011;65132;52.088;5.402;2023-07-13T14:06:15;6.05;;;2.03;;
76320;SDS011;65132;52.088;5.402;2023-07-13T14:08:46;4.00;;;1.98;;
76320;SDS011;65132;52.088;5.402;2023-07-13T14:11:20;4.68;;;1.90;;
76320;SDS011;65132;52.088;5.402;2023-07-13T14:13:52;3.38;;;1.73;;
76320;SDS011;65132;52.088;5.402;2023-07-13T14:16:22;3.85;;;1.75;;
76320;SDS011;65132;52.088;5.402;2023-07-13T14:19:02;6.10;;;2.30;;
76320;SDS011;65132;52.088;5.402;2023-07-13T14:21:29;6.30;;;2.10;;
76320;SDS011;65132;52.088;5.402;2023-07-13T14:23:55;4.28;;;2.00;;
76320;SDS011;65132;52.088;5.402;2023-07-13T14:26:23;4.63;;;2.28;;
76320;SDS011;65132;52.088;5.402;2023-07-13T14:28:52;3.65;;;2.00;;
76320;SDS011;65132;52.088;5.402;2023-07-13T14:31:27;5.38;;;2.15;;
76320;SDS011;65132;52.088;5.402;2023-07-13T14:33:59;3.80;;;1.52;;
76320;SDS011;65132;52.088;5.402;2023-07-13T14:36:33;4.40;;;2.10;;
76320;SDS011;65132;52.088;5.402;2023-07-13T14:39:14;4.97;;;2.30;;
76320;SDS011;65132;52.088;5.402;2023-07-13T14:41:43;4.32;;;2.00;;
76320;SDS011;65132;52.088;5.402;2023-07-13T14:44:14;5.88;;;1.80;;
76320;SDS011;65132;52.088;5.402;2023-07-13T14:46:44;4.43;;;2.10;;
76320;SDS011;65132;52.088;5.402;2023-07-13T14:49:27;5.00;;;2.25;;
76320;SDS011;65132;52.088;5.402;2023-07-13T14:51:57;4.65;;;1.90;;
76320;SDS011;65132;52.088;5.402;2023-07-13T14:54:32;4.63;;;2.17;;
76320;SDS011;65132;52.088;5.402;2023-07-13T14:56:58;5.32;;;1.88;;
76320;SDS011;65132;52.088;5.402;2023-07-13T14:59:27;3.75;;;2.00;;
76320;SDS011;65132;52.088;5.402;2023-07-13T15:01:57;5.38;;;1.92;;
76320;SDS011;65132;52.088;5.402;2023-07-13T15:04:50;4.28;;;1.90;;
76320;SDS011;65132;52.088;5.402;2023-07-13T15:07:18;4.22;;;1.30;;
76320;SDS011;65132;52.088;5.402;2023-07-13T15:09:50;4.07;;;1.70;;
76320;SDS011;65132;52.088;5.402;2023-07-13T15:12:18;6.28;;;2.08;;
76320;SDS011;65132;52.088;5.402;2023-07-13T15:14:44;6.05;;;2.10;;
76320;SDS011;65132;52.088;5.402;2023-07-13T15:17:28;5.22;;;2.00;;
76320;SDS011;65132;52.088;5.402;2023-07-13T15:20:02;4.90;;;1.75;;
76320;SDS011;65132;52.088;5.402;2023-07-13T15:22:30;3.67;;;1.75;;
76320;SDS011;65132;52.088;5.402;2023-07-13T15:24:58;4.35;;;2.15;;
76320;SDS011;65132;52.088;5.402;2023-07-13T15:27:32;4.28;;;2.00;;
76320;SDS011;65132;52.088;5.402;2023-07-13T15:30:01;4.07;;;1.40;;
76320;SDS011;65132;52.088;5.402;2023-07-13T15:32:35;4.35;;;2.08;;
76320;SDS011;65132;52.088;5.402;2023-07-13T15:35:01;4.05;;;1.55;;
76320;SDS011;65132;52.088;5.402;2023-07-13T15:37:31;4.20;;;1.85;;
76320;SDS011;65132;52.088;5.402;2023-07-13T15:40:00;3.55;;;1.60;;
76320;SDS011;65132;52.088;5.402;2023-07-13T15:42:26;3.53;;;1.63;;
76320;SDS011;65132;52.088;5.402;2023-07-13T15:44:53;3.58;;;1.52;;
76320;SDS011;65132;52.088;5.402;2023-07-13T15:47:35;4.65;;;1.80;;
76320;SDS011;65132;52.088;5.402;2023-07-13T15:50:04;6.68;;;1.85;;
76320;SDS011;65132;52.088;5.402;2023-07-13T15:52:31;3.97;;;1.60;;
76320;SDS011;65132;52.088;5.402;2023-07-13T15:55:07;3.22;;;1.52;;
76320;SDS011;65132;52.088;5.402;2023-07-13T15:57:46;3.70;;;1.33;;
76320;SDS011;65132;52.088;5.402;2023-07-13T16:00:23;4.90;;;1.50;;
76320;SDS011;65132;52.088;5.402;2023-07-13T16:02:50;4.70;;;1.77;;
76320;SDS011;65132;52.088;5.402;2023-07-13T16:05:19;5.28;;;1.52;;
76320;SDS011;65132;52.088;5.402;2023-07-13T16:07:48;3.90;;;1.52;;
76320;SDS011;65132;52.088;5.402;2023-07-13T16:10:21;9.00;;;1.95;;